Terminal Aerodrome Forecast
Issued by NWS Nashville, TN

Home | Current Version | Previous Version | Text Only | Print | Product List | Glossary On
Versions: 1 2 3 4 5 6 7 8 9 10 11 12
000
FTUS44 KOHX 251700
TAFBNA
TAF
KBNA 251738Z 2518/2618 29008KT P6SM SCT050
     FM260000 30003KT P6SM SCT100
     FM260900 32004KT 3SM BR SCT010
     FM261400 VRB03KT P6SM SCT035=

USA.gov is the U.S. government's official web portal to all federal, state and local government web resources and services.